Time;durP1;ratioP1;P1;durP2;ratioP2;P2;SDS_P1;SDS_P2;PMS_P1;PMS_P2;Temp;Humidity;BMP_temperature;BMP_pressure;BME280_temperature;BME280_humidity;BME280_pressure;Samples;Min_cycle;Max_cycle;Signal;HPM_P1;HPM_P2
2023/03/27 00:00:26;;;;;;;17.42;16.20;;;;;;;12.41;54.01;101429.25;5034940;28;20088;-79
2023/03/27 00:02:52;;;;;;;20.00;18.80;;;;;;;12.40;54.08;101426.78;5035530;28;20040;-78
2023/03/27 00:05:21;;;;;;;18.23;17.30;;;;;;;12.39;54.11;101434.09;5034824;28;20030;-78
2023/03/27 00:07:47;;;;;;;;;;;;;;;12.36;54.04;101436.47;5035158;28;20461;-78
2023/03/27 00:10:13;;;;;;;18.23;16.73;;;;;;;12.35;54.09;101446.47;5034843;28;20337;-78
2023/03/27 00:12:40;;;;;;;17.25;16.35;;;;;;;12.33;53.95;101448.59;5034688;28;20038;-78
2023/03/27 00:15:06;;;;;;;18.20;17.10;;;;;;;12.32;54.06;101445.06;5034723;28;20033;-79
2023/03/27 00:17:32;;;;;;;16.73;15.73;;;;;;;12.32;54.05;101446.94;5034936;28;20107;-77
2023/03/27 00:19:58;;;;;;;17.35;16.13;;;;;;;12.31;53.93;101454.25;5034489;28;20470;-79
2023/03/27 00:22:23;;;;;;;18.38;17.23;;;;;;;12.31;53.99;101450.72;5035269;28;20037;-78
2023/03/27 00:24:49;;;;;;;19.58;18.08;;;;;;;12.31;53.90;101453.41;5034458;28;20033;-77
2023/03/27 00:27:15;;;;;;;17.60;16.67;;;;;;;12.29;54.05;101447.41;5032789;28;20041;-78
2023/03/27 00:29:40;;;;;;;18.15;16.90;;;;;;;12.27;54.16;101455.78;5034588;28;20121;-77
2023/03/27 00:32:06;;;;;;;17.83;16.40;;;;;;;12.28;54.02;101460.13;5032882;28;20520;-78
2023/03/27 00:34:31;;;;;;;17.02;16.13;;;;;;;12.26;54.08;101464.16;5034543;28;20040;-78
2023/03/27 00:36:57;;;;;;;19.35;18.23;;;;;;;12.25;54.13;101466.03;5034125;28;20116;-78
2023/03/27 00:39:22;;;;;;;17.38;16.48;;;;;;;12.24;54.17;101472.50;5034240;28;20033;-78
2023/03/27 00:41:48;;;;;;;18.50;17.25;;;;;;;12.23;54.09;101473.56;5032945;28;20075;-78
2023/03/27 00:44:27;;;;;;;19.38;18.10;;;;;;;12.22;53.96;101477.34;5034205;28;20393;-78
2023/03/27 00:46:55;;;;;;;18.73;17.55;;;;;;;12.23;54.09;101480.88;5034414;28;20427;-78
2023/03/27 00:49:22;;;;;;;16.15;15.35;;;;;;;12.21;54.11;101485.69;5034045;28;20128;-78
2023/03/27 00:51:48;;;;;;;20.25;19.02;;;;;;;12.20;54.27;101484.06;5033485;28;20038;-77
2023/03/27 00:54:20;;;;;;;17.83;16.92;;;;;;;12.19;54.08;101488.63;5034003;28;20049;-78
2023/03/27 00:56:48;;;;;;;18.88;17.50;;;;;;;12.18;53.88;101491.59;5049164;28;20101;-78
2023/03/27 00:59:18;;;;;;;19.00;18.00;;;;;;;12.17;54.10;101481.81;5033837;28;20116;-78
2023/03/27 01:01:44;;;;;;;18.52;17.58;;;;;;;12.16;54.08;101489.09;5034380;28;20026;-77
2023/03/27 01:04:10;;;;;;;16.75;15.85;;;;;;;12.16;54.08;101488.28;5034387;28;20029;-78
2023/03/27 01:06:36;;;;;;;17.58;16.67;;;;;;;12.15;54.06;101486.66;5034309;28;20029;-78
2023/03/27 01:09:03;;;;;;;16.55;15.65;;;;;;;12.15;54.13;101497.47;5033690;28;20033;-78
2023/03/27 01:11:58;;;;;;;17.55;16.50;;;;;;;12.13;54.06;101498.53;5034332;28;20030;-78
2023/03/27 01:14:54;;;;;;;17.83;16.92;;;;;;;12.10;54.03;101499.00;5019879;28;20068;-78
2023/03/27 01:17:33;;;;;;;17.75;16.70;;;;;;;12.07;54.07;101499.47;5033301;28;20416;-78
2023/03/27 01:20:03;;;;;;;19.55;18.45;;;;;;;12.06;54.16;101499.69;5034191;28;20060;-78
2023/03/27 01:23:10;;;;;;;15.80;15.00;;;;;;;12.05;54.14;101508.88;5033475;28;20040;-78
2023/03/27 01:25:50;;;;;;;16.50;15.60;;;;;;;12.01;54.32;101511.22;5009886;28;20120;-79
2023/03/27 01:28:36;;;;;;;16.20;15.30;;;;;;;12.00;54.24;101512.28;5033526;28;20083;-78
2023/03/27 01:31:14;;;;;;;17.90;16.90;;;;;;;12.00;54.22;101514.19;5033518;28;20116;-78
2023/03/27 01:34:24;;;;;;;15.90;15.00;;;;;;;11.96;54.39;101521.13;5034211;28;20037;-78
2023/03/27 01:37:14;;;;;;;18.95;17.80;;;;;;;11.95;54.15;101525.72;4972855;28;20034;-78
2023/03/27 01:40:17;;;;;;;16.85;15.95;;;;;;;11.91;54.33;101525.31;5036135;28;20037;-78
2023/03/27 01:43:17;;;;;;;16.02;15.20;;;;;;;11.90;54.40;101525.59;5037871;28;20111;-78
2023/03/27 01:46:21;;;;;;;16.00;15.20;;;;;;;11.88;54.20;101522.28;5005680;28;20048;-78
2023/03/27 01:49:09;;;;;;;17.42;16.52;;;;;;;11.88;54.49;101525.81;4976377;28;20112;-77
2023/03/27 01:51:38;;;;;;;16.98;15.98;;;;;;;11.88;54.37;101528.50;5035161;28;20057;-78
2023/03/27 01:54:16;;;;;;;18.20;16.58;;;;;;;11.89;54.45;101529.31;5037581;28;20068;-78
2023/03/27 01:56:52;;;;;;;17.95;16.35;;;;;;;11.89;54.41;101532.03;5037546;28;20052;-78
2023/03/27 01:59:21;;;;;;;18.73;17.63;;;;;;;11.89;54.19;101532.03;5037841;28;20079;-77
2023/03/27 02:01:57;;;;;;;16.70;15.80;;;;;;;11.87;54.15;101532.28;5037070;28;20470;-78
2023/03/27 02:04:27;;;;;;;16.63;15.70;;;;;;;11.89;54.27;101537.44;5036488;28;20028;-78
2023/03/27 02:06:59;;;;;;;17.90;16.90;;;;;;;11.87;54.38;101545.81;5052896;28;20033;-77
2023/03/27 02:09:41;;;;;;;16.33;15.50;;;;;;;11.85;54.38;101553.31;5037169;28;20037;-78
2023/03/27 02:12:15;;;;;;;17.52;16.42;;;;;;;11.84;54.25;101562.50;5036988;28;20032;-78
2023/03/27 02:14:50;;;;;;;17.13;16.23;;;;;;;11.83;54.39;101570.84;5037520;28;20031;-78
2023/03/27 02:17:18;;;;;;;17.00;15.77;;;;;;;11.82;54.13;101570.03;5036823;28;20033;-78
2023/03/27 02:19:53;;;;;;;16.17;15.38;;;;;;;11.83;54.31;101574.38;5037436;28;20033;-78
2023/03/27 02:22:19;;;;;;;15.60;14.70;;;;;;;11.82;54.21;101572.72;5037500;28;20520;-78
2023/03/27 02:24:45;;;;;;;18.55;17.55;;;;;;;11.81;54.23;101573.75;5037297;28;20061;-78
2023/03/27 02:27:46;;;;;;;16.80;15.80;;;;;;;11.79;54.24;101581.31;5036975;28;20033;-78
2023/03/27 02:30:28;;;;;;;15.18;14.38;;;;;;;11.79;54.20;101594.00;5037572;28;20450;-78
2023/03/27 02:33:18;;;;;;;17.20;16.27;;;;;;;11.78;53.91;101592.34;5036869;28;20021;-78
2023/03/27 02:36:04;;;;;;;17.45;16.55;;;;;;;11.73;54.30;101589.53;5037230;28;20059;-78
2023/03/27 02:38:29;;;;;;;15.48;14.68;;;;;;;11.72;54.22;101588.69;5036662;28;20048;-78
2023/03/27 02:40:54;;;;;;;17.23;16.25;;;;;;;11.71;54.29;101589.72;5036973;28;20450;-77
2023/03/27 02:43:36;;;;;;;17.80;16.02;;;;;;;11.70;54.02;101597.03;5036440;28;20104;-78
2023/03/27 02:46:07;;;;;;;18.65;17.55;;;;;;;11.70;54.23;101596.22;5036170;28;20033;-78
2023/03/27 02:48:37;;;;;;;16.38;15.57;;;;;;;11.69;54.36;101602.66;5036385;28;20029;-78
2023/03/27 02:51:05;;;;;;;17.88;16.88;;;;;;;11.68;54.24;101601.03;5036088;28;20606;-78
2023/03/27 02:53:41;;;;;;;15.95;15.07;;;;;;;11.67;54.17;101597.50;5036078;28;20042;-78
2023/03/27 02:56:09;;;;;;;19.13;17.67;;;;;;;11.67;54.20;101605.63;5036719;28;20033;-78
2023/03/27 02:58:43;;;;;;;15.13;14.32;;;;;;;11.66;54.20;101611.25;5036092;28;20033;-78
2023/03/27 03:01:12;;;;;;;17.17;16.10;;;;;;;11.66;54.28;101605.84;5036917;28;20478;-78
2023/03/27 03:03:43;;;;;;;16.40;15.50;;;;;;;11.63;54.16;101615.25;5036638;28;20138;-78
2023/03/27 03:06:09;;;;;;;16.92;15.93;;;;;;;11.63;54.14;101620.66;5036028;28;20033;-78
2023/03/27 03:08:39;;;;;;;16.50;15.40;;;;;;;11.62;54.19;101623.59;5035626;28;20409;-78
2023/03/27 03:11:09;;;;;;;17.17;16.17;;;;;;;11.61;54.09;101628.16;5035900;28;20401;-78
2023/03/27 03:13:35;;;;;;;15.95;15.15;;;;;;;11.60;54.08;101629.22;5036560;28;20104;-78
2023/03/27 03:16:01;;;;;;;19.15;18.02;;;;;;;11.60;54.09;101633.81;5036099;28;20482;-78
2023/03/27 03:18:26;;;;;;;16.17;15.25;;;;;;;11.59;54.27;101640.28;5035736;28;20155;-78
2023/03/27 03:20:55;;;;;;;15.77;14.98;;;;;;;11.57;54.12;101640.50;5018240;28;20120;-78
2023/03/27 03:23:21;;;;;;;15.40;14.60;;;;;;;11.56;54.42;101646.97;5035659;28;20033;-78
2023/03/27 03:25:51;;;;;;;15.95;15.15;;;;;;;11.53;54.31;101642.00;5036223;28;20085;-78
2023/03/27 03:28:17;;;;;;;17.80;16.80;;;;;;;11.54;54.10;101650.94;5036296;28;20385;-78
2023/03/27 03:30:46;;;;;;;15.40;14.60;;;;;;;11.52;54.17;101651.19;5035721;28;20120;-76
2023/03/27 03:33:13;;;;;;;16.92;15.93;;;;;;;11.51;53.87;101659.53;5035420;28;20037;-78
2023/03/27 03:35:39;;;;;;;15.90;15.10;;;;;;;11.50;54.09;101664.13;5035520;28;20038;-79
2023/03/27 03:38:05;;;;;;;18.48;17.35;;;;;;;11.50;54.14;101661.41;5035194;28;20039;-79
2023/03/27 03:40:31;;;;;;;16.17;15.25;;;;;;;11.50;54.05;101674.94;5035409;28;20030;-78
2023/03/27 03:42:57;;;;;;;16.27;15.45;;;;;;;11.49;54.12;101676.00;5035219;28;20040;-78
2023/03/27 03:45:22;;;;;;;15.77;14.88;;;;;;;11.47;54.14;101670.81;5035238;28;20037;-78
2023/03/27 03:47:47;;;;;;;17.38;16.42;;;;;;;11.47;54.04;101680.81;5034162;28;20389;-78
2023/03/27 03:50:13;;;;;;;17.70;16.70;;;;;;;11.46;54.08;101681.84;5035148;28;20112;-78
2023/03/27 03:52:39;;;;;;;16.75;15.85;;;;;;;11.44;54.04;101689.34;5035982;28;20037;-78
2023/03/27 03:55:05;;;;;;;17.60;16.58;;;;;;;11.44;54.07;101683.94;5035945;28;20456;-78
2023/03/27 03:57:31;;;;;;;16.35;15.45;;;;;;;11.44;54.03;101689.34;5035239;28;20076;-78
2023/03/27 03:59:57;;;;;;;15.85;15.00;;;;;;;11.42;54.07;101686.06;5034873;28;20474;-78
2023/03/27 04:02:29;;;;;;;16.58;15.60;;;;;;;11.41;54.11;101689.81;5033020;28;20458;-79
2023/03/27 04:04:58;;;;;;;15.52;14.73;;;;;;;11.40;54.00;101699.00;5051012;28;20040;-79
2023/03/27 04:07:30;;;;;;;15.60;14.80;;;;;;;11.39;53.91;101697.31;5035304;28;20138;-79
2023/03/27 04:09:58;;;;;;;16.80;15.85;;;;;;;11.37;54.04;101700.25;5035424;28;20032;-78
2023/03/27 04:12:25;;;;;;;15.88;15.07;;;;;;;11.36;54.05;101712.13;5035057;28;20466;-79
2023/03/27 04:14:51;;;;;;;17.35;16.45;;;;;;;11.35;54.08;101707.78;5034900;28;20026;-77
2023/03/27 04:17:17;;;;;;;18.15;16.98;;;;;;;11.35;53.96;101715.06;5034634;28;20033;-79
2023/03/27 04:19:45;;;;;;;16.30;15.40;;;;;;;11.34;54.03;101716.09;5034615;28;20037;-78
2023/03/27 04:22:16;;;;;;;16.25;15.15;;;;;;;11.33;54.01;101717.97;5034789;28;20044;-78
2023/03/27 04:24:43;;;;;;;17.65;16.02;;;;;;;11.32;54.00;101731.75;5034572;28;20034;-78
2023/03/27 04:27:09;;;;;;;16.63;15.63;;;;;;;11.31;54.12;101733.59;5034707;28;20083;-79
2023/03/27 04:29:35;;;;;;;17.35;16.45;;;;;;;11.29;54.04;101730.31;5034414;28;20033;-78
2023/03/27 04:32:01;;;;;;;16.77;15.88;;;;;;;11.29;54.08;101743.00;5034320;28;20044;-78
2023/03/27 04:34:26;;;;;;;15.23;14.32;;;;;;;11.27;53.99;101741.34;5032862;28;20068;-78
2023/03/27 04:36:52;;;;;;;15.38;14.57;;;;;;;11.26;53.91;101747.81;5034279;28;20029;-78
2023/03/27 04:39:18;;;;;;;17.77;16.65;;;;;;;11.25;53.99;101751.56;5033530;28;20040;-79
2023/03/27 04:41:48;;;;;;;15.95;14.95;;;;;;;11.24;53.97;101755.31;5034096;28;20030;-78
2023/03/27 04:44:17;;;;;;;16.20;15.27;;;;;;;11.22;54.12;101757.41;5034149;28;20061;-78
2023/03/27 04:46:43;;;;;;;15.48;14.68;;;;;;;11.22;53.95;101760.13;5034111;28;20029;-78
2023/03/27 04:49:09;;;;;;;16.23;15.23;;;;;;;11.20;53.97;101764.91;5032982;28;20474;-82
2023/03/27 04:51:35;;;;;;;17.20;15.57;;;;;;;11.19;53.99;101765.97;5032873;28;20125;-83
2023/03/27 04:54:04;;;;;;;17.00;16.10;;;;;;;11.20;53.93;101774.91;5034544;28;20060;-77
2023/03/27 04:56:30;;;;;;;16.63;15.63;;;;;;;11.19;53.96;101773.28;5033946;28;20026;-80
2023/03/27 04:58:55;;;;;;;16.42;15.35;;;;;;;11.17;53.94;101776.19;5049161;28;20034;-80
2023/03/27 05:01:21;;;;;;;16.40;15.30;;;;;;;11.17;53.94;101787.00;5032578;28;20028;-80
2023/03/27 05:03:48;;;;;;;15.70;14.73;;;;;;;11.16;53.93;101779.94;5033962;28;20037;-83
2023/03/27 05:06:14;;;;;;;16.30;15.10;;;;;;;11.16;53.95;101774.53;5032783;28;20029;-79
2023/03/27 05:08:40;;;;;;;14.88;14.07;;;;;;;11.15;53.99;101772.03;5034528;28;20174;-76
2023/03/27 05:11:06;;;;;;;16.60;15.40;;;;;;;11.14;54.02;101760.41;5034040;28;20037;-79
2023/03/27 05:13:32;;;;;;;14.65;13.85;;;;;;;11.12;53.94;101789.53;5034129;28;20022;-78
2023/03/27 05:15:57;;;;;;;16.58;15.63;;;;;;;11.10;54.08;101794.34;5034051;28;20164;-80
2023/03/27 05:18:23;;;;;;;17.83;16.70;;;;;;;11.09;54.00;101795.41;5034056;28;20069;-80
2023/03/27 05:20:48;;;;;;;15.57;14.77;;;;;;;11.09;54.04;101795.41;5033964;28;20369;-79
2023/03/27 05:23:15;;;;;;;16.17;15.27;;;;;;;11.08;53.90;101799.13;5033528;28;20466;-77
2023/03/27 05:25:41;;;;;;;14.57;13.77;;;;;;;11.07;53.78;101805.59;5033644;28;20120;-80
2023/03/27 05:28:07;;;;;;;15.02;14.23;;;;;;;11.07;53.88;101807.47;5033503;28;20040;-77
2023/03/27 05:30:32;;;;;;;16.27;15.48;;;;;;;11.05;54.16;101816.63;5033715;28;20029;-79
2023/03/27 05:32:58;;;;;;;15.13;14.32;;;;;;;11.04;53.87;101814.97;5033766;28;20488;-79
2023/03/27 05:35:24;;;;;;;17.60;16.55;;;;;;;11.02;53.87;101819.78;5033708;28;20025;-78
2023/03/27 05:37:52;;;;;;;15.40;14.50;;;;;;;11.03;53.88;101828.69;5048587;28;20477;-78
2023/03/27 05:40:24;;;;;;;16.52;15.57;;;;;;;11.01;53.82;101826.25;5033572;28;20083;-80
2023/03/27 05:42:50;;;;;;;15.23;14.43;;;;;;;11.00;53.93;101835.38;5033565;28;20063;-80
2023/03/27 05:45:17;;;;;;;18.55;16.80;;;;;;;10.98;54.08;101834.75;5033033;28;20025;-77
2023/03/27 05:47:53;;;;;;;15.40;14.63;;;;;;;10.97;53.88;101841.22;5033371;28;20151;-77
2023/03/27 05:50:22;;;;;;;16.30;15.38;;;;;;;10.96;53.93;101836.88;5033731;28;20025;-77
2023/03/27 05:52:57;;;;;;;15.23;14.43;;;;;;;10.95;54.10;101847.91;5032983;28;20604;-81
2023/03/27 05:55:23;;;;;;;15.52;14.48;;;;;;;10.94;54.02;101847.06;5033518;28;20021;-80
2023/03/27 05:57:49;;;;;;;16.02;15.13;;;;;;;10.94;54.06;101865.19;5033139;28;20069;-79
2023/03/27 06:00:15;;;;;;;17.08;16.05;;;;;;;10.93;53.75;101874.31;5033101;28;20057;-80
2023/03/27 06:02:42;;;;;;;13.98;13.25;;;;;;;10.92;53.81;101891.59;5031943;28;20029;-80
2023/03/27 06:05:09;;;;;;;16.05;15.23;;;;;;;10.89;53.95;101902.84;5033139;28;20029;-79
2023/03/27 06:07:37;;;;;;;15.45;14.57;;;;;;;10.82;54.01;101905.56;5033106;28;20041;-78
2023/03/27 06:10:03;;;;;;;15.13;14.32;;;;;;;10.81;54.03;101899.34;5033041;28;20469;-80
2023/03/27 06:12:29;;;;;;;16.65;15.65;;;;;;;10.81;53.73;101903.94;5033106;28;20041;-79
2023/03/27 06:14:54;;;;;;;15.65;14.85;;;;;;;10.81;54.11;101899.34;5031919;28;20045;-81
2023/03/27 06:17:20;;;;;;;17.10;16.10;;;;;;;10.82;54.07;101898.28;5031737;28;20033;-79
2023/03/27 06:19:45;;;;;;;14.85;14.05;;;;;;;10.81;53.92;101902.03;5033012;28;20029;-78
2023/03/27 06:22:11;;;;;;;14.98;14.18;;;;;;;10.82;54.11;101909.09;5033043;28;20025;-79
2023/03/27 06:24:37;;;;;;;14.80;14.00;;;;;;;10.82;53.94;101902.88;5033473;28;20029;-79
2023/03/27 06:27:02;;;;;;;17.20;16.30;;;;;;;10.79;53.97;101901.44;5036696;28;20025;-79
2023/03/27 06:29:28;;;;;;;14.95;14.00;;;;;;;10.80;53.79;101910.34;5036494;28;20038;-77
2023/03/27 06:31:56;;;;;;;13.68;12.98;;;;;;;10.80;53.82;101913.06;5051963;28;20029;-79
2023/03/27 06:34:22;;;;;;;15.82;14.75;;;;;;;10.79;53.93;101925.75;5036622;28;20064;-79
2023/03/27 06:36:48;;;;;;;13.63;12.93;;;;;;;10.79;53.93;101923.06;5036151;28;20048;-79
2023/03/27 06:39:14;;;;;;;15.27;14.48;;;;;;;10.77;53.99;101922.44;5036493;28;20032;-79
2023/03/27 06:41:40;;;;;;;15.80;14.90;;;;;;;10.77;54.08;101927.00;5035779;28;20026;-78
2023/03/27 06:44:06;;;;;;;16.40;15.27;;;;;;;10.75;54.08;101931.78;5035755;28;20118;-78
2023/03/27 06:46:31;;;;;;;16.00;14.95;;;;;;;10.74;53.89;101928.28;5035983;28;20386;-81
2023/03/27 06:48:57;;;;;;;15.88;15.07;;;;;;;10.74;53.97;101933.69;5035921;28;20041;-81
2023/03/27 06:51:22;;;;;;;16.45;15.35;;;;;;;10.74;53.98;101930.97;5034490;28;20036;-78
2023/03/27 06:53:48;;;;;;;15.07;14.18;;;;;;;10.74;53.93;101930.16;5050881;28;20509;-80
2023/03/27 06:56:14;;;;;;;15.40;14.48;;;;;;;10.74;54.02;101928.28;5036695;28;20033;-78
2023/03/27 06:58:39;;;;;;;14.85;14.05;;;;;;;10.73;53.93;101926.59;5035879;28;20057;-80
2023/03/27 07:01:05;;;;;;;16.67;15.77;;;;;;;10.72;53.90;101933.06;5035916;28;20113;-79
2023/03/27 07:03:30;;;;;;;17.38;16.27;;;;;;;10.72;53.88;101938.47;5035543;28;20033;-80
2023/03/27 07:05:55;;;;;;;16.02;15.07;;;;;;;10.71;53.98;101939.50;5036139;28;20533;-78
2023/03/27 07:08:21;;;;;;;18.00;16.73;;;;;;;10.71;53.90;101944.06;5050845;28;20029;-82
2023/03/27 07:10:47;;;;;;;14.43;13.63;;;;;;;10.71;53.97;101946.78;5035734;28;20030;-78
2023/03/27 07:13:12;;;;;;;14.82;13.93;;;;;;;10.69;53.83;101944.31;5034263;28;20386;-81
2023/03/27 07:15:38;;;;;;;16.05;15.15;;;;;;;10.70;53.87;101955.94;5035490;28;20060;-80
2023/03/27 07:18:05;;;;;;;17.50;16.40;;;;;;;10.70;53.87;101955.94;5035236;28;20029;-79
2023/03/27 07:20:32;;;;;;;16.58;15.30;;;;;;;10.68;53.88;101960.72;5035437;28;20025;-80
2023/03/27 07:22:59;;;;;;;15.27;14.40;;;;;;;10.67;53.80;101956.38;5035025;28;20095;-77
2023/03/27 07:25:36;;;;;;;18.52;17.13;;;;;;;10.65;53.85;101970.06;5034857;28;20033;-81
2023/03/27 07:28:15;;;;;;;15.95;14.80;;;;;;;10.64;53.89;101976.53;5034640;28;20374;-80
2023/03/27 07:30:40;;;;;;;;;;;;;;;10.61;53.99;101980.50;5035787;28;20385;-78
2023/03/27 07:33:08;;;;;;;15.50;14.60;;;;;;;10.59;53.89;101971.78;5034977;28;20344;-79
2023/03/27 07:35:39;;;;;;;15.40;14.50;;;;;;;10.59;53.94;101982.56;5034537;28;20030;-78
2023/03/27 07:38:04;;;;;;;15.27;14.38;;;;;;;10.60;54.01;101976.13;5034660;28;20076;-79
2023/03/27 07:40:32;;;;;;;16.10;15.10;;;;;;;10.60;54.03;101975.28;5034761;28;20482;-79
2023/03/27 07:42:57;;;;;;;14.65;13.75;;;;;;;10.61;54.02;101975.09;5035477;28;20068;-80
2023/03/27 07:45:23;;;;;;;18.20;17.02;;;;;;;10.61;53.87;101966.16;5034730;28;20025;-80
2023/03/27 07:47:49;;;;;;;14.38;13.57;;;;;;;10.61;53.92;101976.97;5034769;28;20056;-79
2023/03/27 07:50:16;;;;;;;16.60;15.52;;;;;;;10.61;53.81;101975.09;5034645;28;20041;-78
2023/03/27 07:52:44;;;;;;;16.17;15.20;;;;;;;10.60;54.02;101981.53;5034530;28;20084;-80
2023/03/27 07:55:16;;;;;;;14.75;13.93;;;;;;;10.62;53.98;101989.44;5034906;28;20033;-82
2023/03/27 07:57:47;;;;;;;16.75;15.85;;;;;;;10.60;53.97;101991.50;5049663;28;20096;-77
2023/03/27 08:00:15;;;;;;;19.15;17.92;;;;;;;10.59;54.10;101995.25;5034505;28;20025;-78
2023/03/27 08:02:41;;;;;;;15.95;15.05;;;;;;;10.59;54.18;101998.78;5034354;28;20434;-80
2023/03/27 08:05:08;;;;;;;15.57;14.68;;;;;;;10.59;54.10;102000.66;5034400;28;20067;-74
2023/03/27 08:07:35;;;;;;;16.48;15.32;;;;;;;10.59;53.77;102000.66;5034282;28;20045;-78
2023/03/27 08:10:01;;;;;;;17.00;16.00;;;;;;;10.59;54.08;102001.50;5034387;28;20431;-78
2023/03/27 08:12:28;;;;;;;16.67;15.68;;;;;;;10.58;54.08;102004.38;5034437;28;20038;-79
2023/03/27 08:14:53;;;;;;;15.20;14.40;;;;;;;10.57;54.10;102005.44;5033242;28;20481;-78
2023/03/27 08:17:19;;;;;;;15.90;14.93;;;;;;;10.59;54.25;102011.47;5034198;28;20065;-79
2023/03/27 08:19:45;;;;;;;14.68;13.85;;;;;;;10.60;54.35;102010.41;5034445;28;20088;-80
2023/03/27 08:22:10;;;;;;;16.42;15.32;;;;;;;10.60;54.15;102005.84;5033947;28;20033;-79
2023/03/27 08:24:36;;;;;;;16.38;15.30;;;;;;;10.61;54.15;102004.00;5033960;28;20388;-80
2023/03/27 08:27:02;;;;;;;15.32;14.43;;;;;;;10.62;54.14;102021.84;5034010;28;20071;-82
2023/03/27 08:29:27;;;;;;;17.70;16.50;;;;;;;10.61;54.07;102015.63;5033118;28;20126;-81
2023/03/27 08:31:53;;;;;;;16.30;15.30;;;;;;;10.61;54.12;102015.63;5049402;28;20120;-76
2023/03/27 08:34:19;;;;;;;16.00;14.98;;;;;;;10.63;54.13;102018.09;5033969;28;20026;-77
2023/03/27 08:36:44;;;;;;;18.10;17.10;;;;;;;10.63;54.20;102026.19;5033493;28;20413;-77
2023/03/27 08:39:10;;;;;;;16.13;15.13;;;;;;;10.62;54.22;102035.34;5034457;28;20433;-76
2023/03/27 08:41:37;;;;;;;16.90;15.68;;;;;;;10.62;54.17;102027.25;5034091;28;20462;-76
2023/03/27 08:44:08;;;;;;;15.60;14.70;;;;;;;10.65;53.96;102021.41;5033772;28;20027;-77
2023/03/27 08:46:51;;;;;;;17.55;16.40;;;;;;;10.63;54.29;102022.69;5034171;28;20029;-77
2023/03/27 08:49:20;;;;;;;17.02;15.77;;;;;;;10.61;54.12;102053.44;5033192;28;20028;-76
2023/03/27 08:51:51;;;;;;;14.20;13.13;;;;;;;10.64;54.04;102059.47;5034047;28;20478;-77
2023/03/27 08:54:26;;;;;;;16.00;14.98;;;;;;;10.61;54.35;102061.56;5034101;28;20049;-76
2023/03/27 08:56:52;;;;;;;15.77;14.88;;;;;;;10.64;54.43;102064.88;5033447;28;20044;-78
2023/03/27 08:59:20;;;;;;;16.75;15.57;;;;;;;10.64;54.35;102065.72;5032548;28;20034;-78
2023/03/27 09:01:45;;;;;;;15.18;14.25;;;;;;;10.66;54.23;102077.16;5033102;28;20037;-78
2023/03/27 09:04:38;;;;;;;17.08;16.00;;;;;;;10.66;54.33;102077.16;5033820;28;20080;-79
2023/03/27 09:07:23;;;;;;;16.08;15.07;;;;;;;10.63;54.47;102080.25;5034020;28;20124;-76
2023/03/27 09:09:58;;;;;;;14.75;13.85;;;;;;;10.61;54.39;102080.47;5033219;28;20029;-76
2023/03/27 09:12:53;;;;;;;17.15;16.05;;;;;;;10.61;54.50;102076.94;5033311;28;20485;-81
2023/03/27 09:15:24;;;;;;;18.42;16.70;;;;;;;10.55;54.58;102073.19;5033457;28;20462;-78
2023/03/27 09:18:11;;;;;;;16.27;15.38;;;;;;;10.55;54.60;102077.78;5033526;28;20025;-77
2023/03/27 09:20:42;;;;;;;15.75;14.75;;;;;;;10.53;54.82;102083.41;5031681;28;20036;-74
2023/03/27 09:23:28;;;;;;;15.50;14.55;;;;;;;10.54;54.75;102079.66;5032983;28;20049;-76
2023/03/27 09:25:58;;;;;;;14.27;13.48;;;;;;;10.60;54.66;102086.91;5022481;28;20467;-78
2023/03/27 09:28:50;;;;;;;17.42;16.23;;;;;;;10.63;54.54;102087.53;5033260;28;20056;-78
2023/03/27 09:31:33;;;;;;;17.85;16.65;;;;;;;10.65;54.30;102101.66;5033337;28;20037;-82
2023/03/27 09:34:05;;;;;;;16.75;14.40;;;;;;;10.64;54.65;102092.72;5032920;28;20029;-79
2023/03/27 09:36:31;;;;;;;16.63;15.57;;;;;;;10.68;54.66;102093.13;5033049;28;20067;-79
2023/03/27 09:39:04;;;;;;;15.27;14.40;;;;;;;10.70;54.75;102094.56;5032477;28;20021;-74
2023/03/27 09:41:34;;;;;;;15.43;14.38;;;;;;;10.74;54.58;102101.25;5033089;28;20475;-74
2023/03/27 09:44:09;;;;;;;16.42;15.43;;;;;;;10.76;54.41;102099.16;5032700;28;20060;-77
2023/03/27 09:46:38;;;;;;;16.88;15.52;;;;;;;10.77;54.70;102100.81;5031594;28;20033;-76
2023/03/27 09:49:12;;;;;;;16.30;15.38;;;;;;;10.77;54.92;102106.22;5031531;28;20094;-77
2023/03/27 09:51:44;;;;;;;18.52;17.10;;;;;;;10.80;54.88;102104.97;5032747;28;20034;-78
2023/03/27 09:54:13;;;;;;;15.65;14.70;;;;;;;10.80;54.80;102130.13;5033111;28;20046;-78
2023/03/27 09:56:55;;;;;;;18.00;16.60;;;;;;;10.80;54.79;102153.63;5033197;28;20080;-76
2023/03/27 09:59:36;;;;;;;15.30;14.30;;;;;;;10.79;54.88;102147.38;5034130;28;20029;-79
2023/03/27 10:02:20;;;;;;;15.63;14.73;;;;;;;10.79;54.75;102146.56;5037426;28;20030;-75
2023/03/27 10:05:14;;;;;;;18.38;17.15;;;;;;;10.82;54.62;102138.03;5037505;28;20033;-78
2023/03/27 10:07:41;;;;;;;17.58;16.30;;;;;;;10.86;54.81;102136.56;5036871;28;20040;-78
2023/03/27 10:10:12;;;;;;;15.77;14.88;;;;;;;10.89;54.76;102132.63;5037278;28;20053;-78
2023/03/27 10:12:39;;;;;;;17.88;16.77;;;;;;;10.91;54.68;102128.66;5038018;28;20116;-78
2023/03/27 10:15:23;;;;;;;16.85;15.75;;;;;;;10.92;54.94;102124.91;5037547;28;20029;-79
2023/03/27 10:17:49;;;;;;;15.98;14.88;;;;;;;10.94;54.86;102120.13;5036917;28;20033;-78
2023/03/27 10:20:17;;;;;;;14.70;13.80;;;;;;;10.98;54.88;102118.63;5037467;28;20030;-79
2023/03/27 10:22:54;;;;;;;16.60;15.43;;;;;;;11.00;55.25;102121.97;5036231;28;20469;-79
2023/03/27 10:25:28;;;;;;;15.52;14.73;;;;;;;11.03;54.95;102134.22;5037193;28;20033;-78
2023/03/27 10:28:05;;;;;;;16.30;15.40;;;;;;;11.04;55.09;102130.50;5037243;28;20049;-79
2023/03/27 10:30:33;;;;;;;15.20;14.30;;;;;;;11.05;55.16;102129.44;5037484;28;20064;-77
2023/03/27 10:32:58;;;;;;;15.77;14.87;;;;;;;11.09;55.18;102128.00;5036299;28;20021;-78
2023/03/27 10:35:31;;;;;;;16.02;15.13;;;;;;;11.10;55.42;102131.53;5036442;28;20111;-78
2023/03/27 10:37:57;;;;;;;15.75;14.85;;;;;;;11.11;55.25;102123.19;5036183;28;20100;-79
2023/03/27 10:40:35;;;;;;;16.77;15.48;;;;;;;11.13;55.27;102118.41;5036186;28;20056;-74
2023/03/27 10:43:09;;;;;;;15.45;14.57;;;;;;;11.17;55.11;102138.56;5036184;28;20107;-79
2023/03/27 10:45:52;;;;;;;16.58;15.68;;;;;;;11.13;55.69;102158.97;5035696;28;20112;-74
2023/03/27 10:48:48;;;;;;;15.20;14.40;;;;;;;11.12;55.26;102146.50;5036166;28;20116;-75
2023/03/27 10:51:27;;;;;;;15.55;14.70;;;;;;;11.06;55.56;102144.63;5031910;28;20041;-77
2023/03/27 10:53:55;;;;;;;16.20;15.07;;;;;;;11.11;55.43;102139.41;5036171;28;20041;-77
2023/03/27 10:57:15;;;;;;;16.55;15.65;;;;;;;11.11;55.56;102155.63;5035783;28;20037;-77
2023/03/27 10:59:53;;;;;;;16.70;15.30;;;;;;;11.12;55.57;102149.19;4974651;28;20118;-77
2023/03/27 11:02:30;;;;;;;15.65;14.75;;;;;;;11.15;55.52;102156.88;5035693;28;20370;-77
2023/03/27 11:05:03;;;;;;;15.57;14.65;;;;;;;11.17;55.51;102148.56;5035477;28;20035;-76
2023/03/27 11:07:48;;;;;;;16.42;15.52;;;;;;;11.20;55.43;102156.25;5035788;28;20434;-77
2023/03/27 11:10:20;;;;;;;16.05;14.77;;;;;;;11.21;55.56;102157.91;5035901;28;20343;-78
2023/03/27 11:13:08;;;;;;;19.48;18.15;;;;;;;11.19;55.86;102160.84;5035420;28;20033;-79
2023/03/27 11:15:41;;;;;;;17.35;16.25;;;;;;;11.21;55.58;102160.59;5035640;28;20079;-78
2023/03/27 11:18:28;;;;;;;17.38;16.30;;;;;;;11.21;55.49;102169.56;5035352;28;20104;-79
2023/03/27 11:21:00;;;;;;;18.88;17.55;;;;;;;11.26;55.45;102164.34;5035187;28;20052;-81
2023/03/27 11:23:37;;;;;;;14.52;13.73;;;;;;;11.27;55.86;102159.78;5033933;28;20032;-82
2023/03/27 11:26:05;;;;;;;16.33;15.32;;;;;;;11.29;55.48;102163.09;5035569;28;20483;-80